Time;durP1;ratioP1;P1;durP2;ratioP2;P2;SDS_P1;SDS_P2;PMS_P1;PMS_P2;Temp;Humidity;BMP_temperature;BMP_pressure;BME280_temperature;BME280_humidity;BME280_pressure;Samples;Min_cycle;Max_cycle;Signal;HPM_P1;HPM_P2
2021/10/22 00:00:40;;;;;;;5.45;2.70;;;10.50;99.90;;;;;;6291865;28;20031;-81
2021/10/22 00:03:41;;;;;;;4.20;2.75;;;;;;;;;;6275978;28;20069;-81
2021/10/22 00:06:42;;;;;;;4.93;2.08;;;10.80;99.90;;;;;;6292067;28;20044;-81
2021/10/22 00:09:42;;;;;;;3.20;2.22;;;10.40;99.90;;;;;;6275890;28;20039;-79
2021/10/22 00:12:43;;;;;;;1.75;1.20;;;10.40;99.90;;;;;;6275791;28;20082;-79
2021/10/22 00:15:44;;;;;;;1.38;1.27;;;10.50;99.90;;;;;;6291854;28;20037;-80
2021/10/22 00:18:45;;;;;;;2.47;1.60;;;;;;;;;;6293392;28;20025;-81
2021/10/22 00:21:46;;;;;;;1.63;1.52;;;;;;;;;;6275291;28;20021;-80
2021/10/22 00:24:47;;;;;;;0.95;0.95;;;;;;;;;;6291884;28;20064;-81
2021/10/22 00:27:48;;;;;;;1.50;1.40;;;;;;;;;;6292121;28;20024;-79
2021/10/22 00:30:48;;;;;;;1.30;1.20;;;10.10;99.90;;;;;;6292172;28;20028;-79
2021/10/22 00:33:50;;;;;;;1.50;1.40;;;;;;;;;;6291704;28;20063;-80
2021/10/22 00:36:51;;;;;;;1.35;1.20;;;10.00;99.90;;;;;;6293299;28;20021;-79
2021/10/22 00:39:52;;;;;;;2.78;1.67;;;;;;;;;;6275185;28;20071;-81
2021/10/22 00:42:54;;;;;;;2.72;1.42;;;9.60;99.90;;;;;;6275057;28;20063;-80
2021/10/22 00:45:54;;;;;;;1.50;1.40;;;9.70;99.90;;;;;;6275090;28;20060;-80
2021/10/22 00:48:55;;;;;;;1.73;1.63;;;9.30;99.90;;;;;;6258339;28;20091;-81
2021/10/22 00:51:57;;;;;;;2.70;1.90;;;;;;;;;;6290918;28;20033;-79
2021/10/22 00:54:59;;;;;;;1.92;1.73;;;;;;;;;;6274878;28;20405;-80
2021/10/22 00:57:59;;;;;;;2.28;1.35;;;9.40;99.90;;;;;;6291287;28;20125;-79
2021/10/22 01:01:00;;;;;;;1.38;1.27;;;;;;;;;;6274914;28;20604;-80
2021/10/22 01:04:01;;;;;;;2.47;1.30;;;9.40;99.90;;;;;;6291609;28;20025;-82
2021/10/22 01:07:02;;;;;;;1.42;1.33;;;9.20;99.90;;;;;;6274621;28;20044;-79
2021/10/22 01:10:04;;;;;;;2.22;1.48;;;9.20;99.90;;;;;;6257883;28;20576;-80
2021/10/22 01:13:06;;;;;;;3.20;1.50;;;9.40;99.90;;;;;;6274786;28;20027;-80
2021/10/22 01:16:06;;;;;;;3.25;1.33;;;9.20;99.90;;;;;;6257976;28;20271;-79
2021/10/22 01:19:12;;;;;;;1.30;1.20;;;8.90;99.90;;;;;;6274732;28;20071;-81
2021/10/22 01:22:14;;;;;;;2.75;1.98;;;8.90;99.90;;;;;;6274523;28;20078;-81
2021/10/22 01:25:16;;;;;;;1.77;1.50;;;8.90;99.90;;;;;;6258154;28;20051;-80
2021/10/22 01:28:19;;;;;;;2.63;1.50;;;8.90;99.90;;;;;;6274559;28;20029;-80
2021/10/22 01:31:21;;;;;;;2.10;1.90;;;9.20;99.90;;;;;;6291450;28;20079;-81
2021/10/22 01:34:21;;;;;;;4.87;2.07;;;8.90;99.90;;;;;;6257573;28;20458;-79
2021/10/22 01:37:22;;;;;;;2.90;1.85;;;8.80;99.90;;;;;;6291126;28;20028;-80
2021/10/22 01:40:22;;;;;;;1.92;1.83;;;8.90;99.90;;;;;;6274451;28;20035;-81
2021/10/22 01:43:23;;;;;;;2.40;2.10;;;;;;;;;;6290624;28;20036;-78
2021/10/22 01:46:24;;;;;;;3.10;2.15;;;8.90;99.90;;;;;;6273916;28;20456;-79
2021/10/22 01:49:25;;;;;;;2.60;2.00;;;8.90;99.90;;;;;;6274384;28;20032;-79
2021/10/22 01:52:25;;;;;;;2.70;2.20;;;9.00;99.90;;;;;;6291118;28;20029;-81
2021/10/22 01:55:26;;;;;;;2.65;2.22;;;;;;;;;;6274323;28;20024;-80
2021/10/22 01:58:28;;;;;;;3.20;2.20;;;8.70;99.90;;;;;;6290979;28;20020;-80
2021/10/22 02:01:30;;;;;;;5.10;2.10;;;;;;;;;;6292264;28;20031;-81
2021/10/22 02:04:31;;;;;;;3.63;2.00;;;8.80;99.90;;;;;;6275762;28;20033;-80
2021/10/22 02:07:32;;;;;;;2.22;1.95;;;8.60;99.90;;;;;;6295166;28;20041;-81
2021/10/22 02:10:33;;;;;;;4.00;1.67;;;;;;;;;;6296405;28;20070;-80
2021/10/22 02:13:33;;;;;;;2.28;1.65;;;9.00;99.90;;;;;;6294718;28;20025;-81
2021/10/22 02:16:34;;;;;;;1.95;1.70;;;8.80;99.90;;;;;;6277976;28;20375;-79
2021/10/22 02:19:35;;;;;;;1.63;1.48;;;;;;;;;;6296537;28;20028;-81
2021/10/22 02:22:36;;;;;;;3.08;1.90;;;;;;;;;;6278029;28;20078;-80
2021/10/22 02:25:37;;;;;;;1.98;1.58;;;8.80;99.90;;;;;;6295031;28;20033;-81
2021/10/22 02:28:38;;;;;;;1.60;1.50;;;;;;;;;;6294960;28;20549;-81
2021/10/22 02:31:38;;;;;;;2.72;1.42;;;8.70;99.90;;;;;;6278605;28;20025;-80
2021/10/22 02:34:39;;;;;;;2.63;1.83;;;8.40;99.90;;;;;;6294556;28;20044;-81
2021/10/22 02:37:42;;;;;;;1.73;1.63;;;8.80;99.90;;;;;;6294859;28;20040;-80
2021/10/22 02:40:43;;;;;;;1.20;1.20;;;8.70;99.90;;;;;;6294541;28;20035;-81
2021/10/22 02:43:43;;;;;;;1.88;1.73;;;8.80;99.90;;;;;;6294276;28;20029;-80
2021/10/22 02:46:44;;;;;;;1.40;1.30;;;8.80;99.90;;;;;;6277358;28;20056;-80
2021/10/22 02:49:44;;;;;;;2.85;1.58;;;8.80;99.90;;;;;;6260789;28;20024;-79
2021/10/22 02:52:45;;;;;;;1.70;1.20;;;9.10;99.90;;;;;;6277791;28;20497;-80
2021/10/22 02:55:46;;;;;;;3.35;2.28;;;8.90;99.90;;;;;;6294164;28;20059;-81
2021/10/22 02:58:47;;;;;;;5.60;3.17;;;8.80;99.90;;;;;;6277575;28;20028;-81
2021/10/22 03:01:47;;;;;;;7.18;3.90;;;8.90;99.90;;;;;;6294052;28;20096;-81
2021/10/22 03:04:48;;;;;;;6.60;4.18;;;8.70;99.90;;;;;;6294177;28;20048;-80
2021/10/22 03:07:49;;;;;;;6.07;4.22;;;10.00;99.90;;;;;;6277603;28;20043;-80
2021/10/22 03:10:49;;;;;;;2.83;2.53;;;8.90;99.90;;;;;;6293545;28;20032;-80
2021/10/22 03:13:50;;;;;;;4.32;2.65;;;8.80;99.90;;;;;;6276827;28;20073;-79
2021/10/22 03:16:50;;;;;;;2.92;2.40;;;9.00;99.90;;;;;;6294527;28;20051;-80
2021/10/22 03:19:51;;;;;;;4.50;2.55;;;8.90;99.90;;;;;;6277194;28;20039;-80
2021/10/22 03:22:51;;;;;;;2.50;2.30;;;8.70;99.90;;;;;;6293607;28;20024;-79
2021/10/22 03:25:52;;;;;;;2.33;2.10;;;8.90;99.90;;;;;;6277114;28;20048;-81
2021/10/22 03:28:53;;;;;;;2.40;2.20;;;8.60;99.90;;;;;;6293178;28;20358;-79
2021/10/22 03:31:54;;;;;;;1.90;1.80;;;8.50;99.90;;;;;;6294531;28;20020;-81
2021/10/22 03:34:54;;;;;;;2.63;2.42;;;8.90;99.90;;;;;;6276523;28;20108;-80
2021/10/22 03:37:55;;;;;;;3.40;2.65;;;8.70;99.90;;;;;;6276431;28;20108;-81
2021/10/22 03:40:55;;;;;;;2.63;2.42;;;9.20;99.90;;;;;;6276206;28;20082;-81
2021/10/22 03:43:56;;;;;;;4.03;2.60;;;10.30;99.90;;;;;;6276185;28;20025;-81
2021/10/22 03:46:57;;;;;;;3.38;3.00;;;8.70;99.90;;;;;;6275935;28;20147;-80
2021/10/22 03:49:57;;;;;;;4.70;3.17;;;8.90;99.90;;;;;;6293025;28;20436;-80
2021/10/22 03:52:58;;;;;;;4.68;3.63;;;8.60;99.90;;;;;;6276278;28;20599;-79
2021/10/22 03:55:59;;;;;;;4.45;3.92;;;9.50;99.90;;;;;;6292488;28;20460;-80
2021/10/22 03:59:00;;;;;;;5.85;4.25;;;8.60;99.90;;;;;;6292804;28;20857;-80
2021/10/22 04:02:00;;;;;;;6.88;4.70;;;8.60;99.90;;;;;;6259194;28;20064;-81
2021/10/22 04:05:04;;;;;;;6.35;4.47;;;8.40;99.90;;;;;;6275680;28;20093;-80
2021/10/22 04:08:05;;;;;;;6.32;5.68;;;8.60;99.90;;;;;;6276303;28;20028;-81
2021/10/22 04:11:06;;;;;;;8.95;5.80;;;;;;;;;;6292025;28;20036;-80
2021/10/22 04:14:07;;;;;;;8.32;6.15;;;8.20;99.90;;;;;;6292303;28;20024;-80
2021/10/22 04:17:07;;;;;;;9.95;6.07;;;8.60;99.90;;;;;;6275418;28;20111;-81
2021/10/22 04:20:08;;;;;;;7.22;5.03;;;10.10;99.90;;;;;;6259131;28;20520;-81
2021/10/22 04:23:09;;;;;;;10.00;5.22;;;8.40;99.90;;;;;;6275427;28;20028;-81
2021/10/22 04:26:10;;;;;;;9.55;4.95;;;8.50;99.90;;;;;;6274514;28;20051;-82
2021/10/22 04:29:11;;;;;;;7.00;5.00;;;8.20;99.90;;;;;;6275725;28;20033;-82
2021/10/22 04:32:12;;;;;;;8.30;5.13;;;8.50;99.90;;;;;;6275084;28;20042;-81
2021/10/22 04:35:13;;;;;;;7.78;5.80;;;9.20;99.90;;;;;;6258529;28;20623;-82
2021/10/22 04:41:14;;;;;;;8.60;5.25;;;8.20;99.90;;;;;;6274982;28;20050;-83
2021/10/22 04:44:15;;;;;;;9.30;5.70;;;8.20;99.90;;;;;;6257975;28;20082;-83
2021/10/22 04:47:16;;;;;;;8.77;4.43;;;8.20;99.90;;;;;;6275157;28;20121;-82
2021/10/22 04:50:18;;;;;;;10.77;5.10;;;8.20;99.90;;;;;;6274560;28;20482;-82
2021/10/22 04:53:22;;;;;;;7.05;4.68;;;8.20;99.90;;;;;;6258247;28;20287;-82
2021/10/22 04:56:23;;;;;;;9.23;5.10;;;8.20;99.90;;;;;;6291340;28;20043;-84
2021/10/22 04:59:23;;;;;;;6.65;4.82;;;9.70;99.90;;;;;;6292161;28;20029;-82
2021/10/22 05:02:25;;;;;;;6.88;4.90;;;8.60;99.90;;;;;;6275263;28;20486;-85
2021/10/22 05:05:26;;;;;;;8.47;3.40;;;8.90;99.90;;;;;;6257712;28;20127;-84
2021/10/22 05:08:27;;;;;;;7.78;3.22;;;9.00;99.90;;;;;;6258301;28;20054;-87
2021/10/22 05:11:27;;;;;;;8.02;3.80;;;8.40;99.90;;;;;;6258439;28;20033;-88
2021/10/22 05:14:28;;;;;;;7.07;3.00;;;8.80;99.90;;;;;;6258567;28;20032;-85
2021/10/22 05:17:28;;;;;;;6.88;3.40;;;8.40;99.90;;;;;;6274854;28;20112;-84
2021/10/22 05:20:29;;;;;;;6.25;3.47;;;8.20;99.90;;;;;;6274548;28;20135;-85
2021/10/22 05:23:30;;;;;;;12.60;3.55;;;;;;;;;;6275187;28;20032;-84
2021/10/22 05:26:31;;;;;;;8.82;3.17;;;8.00;99.90;;;;;;6291385;28;20043;-88
2021/10/22 05:29:31;;;;;;;7.32;3.10;;;8.20;99.90;;;;;;6257179;28;20028;-83
2021/10/22 05:32:32;;;;;;;6.55;3.00;;;;;;;;;;6272460;28;20043;-84
2021/10/22 05:35:33;;;;;;;7.22;3.03;;;;;;;;;;6291015;28;20615;-86
2021/10/22 05:38:34;;;;;;;10.25;2.83;;;;;;;;;;6275893;28;20024;-85
2021/10/22 05:41:35;;;;;;;6.55;3.22;;;7.80;99.90;;;;;;6278460;28;20039;-83
2021/10/22 05:44:36;;;;;;;15.00;4.45;;;;;;;;;;6294574;28;20119;-81
2021/10/22 05:47:37;;;;;;;9.65;3.38;;;8.20;99.90;;;;;;6295607;28;20029;-84
2021/10/22 05:50:40;;;;;;;11.07;3.47;;;;;;;;;;6278188;28;20170;-83
2021/10/22 05:53:40;;;;;;;;;;;8.60;99.90;;;;;;6295680;28;20082;-85
2021/10/22 05:56:41;;;;;;;7.65;3.35;;;8.40;99.90;;;;;;6278792;28;19909;-86
2021/10/22 05:59:41;;;;;;;8.00;3.35;;;9.40;99.90;;;;;;6279887;28;20482;-86
2021/10/22 06:02:42;;;;;;;13.18;3.47;;;8.30;99.90;;;;;;6263074;28;20115;-86
2021/10/22 06:05:43;;;;;;;12.43;3.55;;;8.20;99.90;;;;;;6279151;28;20040;-86
2021/10/22 06:08:44;;;;;;;7.85;3.17;;;8.10;99.90;;;;;;6279497;28;20427;-88
2021/10/22 06:11:45;;;;;;;6.07;3.10;;;8.90;99.90;;;;;;6262787;28;20042;-86
2021/10/22 06:14:46;;;;;;;8.88;3.30;;;8.00;99.90;;;;;;6278972;28;20440;-85
2021/10/22 06:17:47;;;;;;;6.10;3.28;;;8.00;99.90;;;;;;6278876;28;20021;-89
2021/10/22 06:20:54;;;;;;;7.90;3.35;;;8.40;99.90;;;;;;6279102;28;20035;-86
2021/10/22 06:24:02;;;;;;;13.00;3.50;;;8.30;99.90;;;;;;6264210;28;20040;-86
2021/10/22 06:27:03;;;;;;;8.82;3.50;;;8.40;99.90;;;;;;6280041;28;20436;-85
2021/10/22 06:30:04;;;;;;;5.40;3.03;;;8.10;99.90;;;;;;6262256;28;20028;-86
2021/10/22 06:33:04;;;;;;;8.50;2.95;;;8.00;99.90;;;;;;6278575;28;20036;-90
2021/10/22 06:36:06;;;;;;;8.32;3.50;;;8.00;99.90;;;;;;6295720;28;20115;-87
2021/10/22 06:39:07;;;;;;;11.55;3.75;;;8.10;99.90;;;;;;6278687;28;20024;-90
2021/10/22 06:42:08;;;;;;;13.00;4.72;;;;;;;;;;6278776;28;20484;-86
2021/10/22 06:45:09;;;;;;;6.22;3.47;;;8.10;99.90;;;;;;6294815;28;20064;-86
2021/10/22 06:48:10;;;;;;;8.07;3.38;;;8.10;99.90;;;;;;6278317;28;20068;-86
2021/10/22 06:51:14;;;;;;;6.53;3.60;;;8.20;99.90;;;;;;6244736;28;20077;-87
2021/10/22 06:54:14;;;;;;;9.30;4.55;;;8.10;99.90;;;;;;6279152;28;20031;-87
2021/10/22 06:57:15;;;;;;;10.18;4.07;;;;;;;;;;6278302;28;20024;-85
2021/10/22 07:00:16;;;;;;;7.65;3.42;;;8.30;99.90;;;;;;6278230;28;20040;-88
2021/10/22 07:03:23;;;;;;;6.25;3.40;;;8.60;99.90;;;;;;6261257;28;20025;-88
2021/10/22 07:09:46;;;;;;;13.13;3.72;;;9.40;99.90;;;;;;6280824;28;20028;-87
2021/10/22 07:12:47;;;;;;;5.03;3.30;;;9.60;99.90;;;;;;6270081;28;20378;-87
2021/10/22 07:15:48;;;;;;;11.40;3.90;;;;;;;;;;6260637;28;20033;-85
2021/10/22 07:18:50;;;;;;;6.18;3.20;;;9.50;99.90;;;;;;6294037;28;20481;-87
2021/10/22 07:21:51;;;;;;;9.18;3.28;;;10.10;99.90;;;;;;6261504;28;20025;-85
2021/10/22 07:24:52;;;;;;;18.92;3.20;;;10.10;99.90;;;;;;6261166;28;20074;-86
2021/10/22 07:27:52;;;;;;;6.55;2.85;;;11.60;99.90;;;;;;6277048;28;20021;-86
2021/10/22 07:30:53;;;;;;;9.82;3.90;;;11.70;99.90;;;;;;6277413;28;20166;-85
2021/10/22 07:33:55;;;;;;;10.32;3.50;;;13.10;99.90;;;;;;6277079;28;20052;-85
2021/10/22 07:36:55;;;;;;;8.87;3.67;;;13.70;99.90;;;;;;6277169;28;20041;-86
2021/10/22 07:39:56;;;;;;;7.15;3.42;;;14.20;99.90;;;;;;6260696;28;20051;-87
2021/10/22 07:42:56;;;;;;;11.57;4.13;;;14.70;99.90;;;;;;6292814;28;20036;-88
2021/10/22 07:45:59;;;;;;;7.10;3.30;;;14.70;99.90;;;;;;6276243;28;20068;-82
2021/10/22 07:48:59;;;;;;;11.20;3.50;;;15.30;99.90;;;;;;6276529;28;20024;-83
2021/10/22 07:52:00;;;;;;;12.45;4.63;;;15.30;99.90;;;;;;6259361;28;20090;-85
2021/10/22 07:55:01;;;;;;;10.18;5.85;;;15.50;99.90;;;;;;6275896;28;20029;-86
2021/10/22 07:58:02;;;;;;;9.38;3.65;;;15.50;99.90;;;;;;6276030;28;20025;-85
2021/10/22 08:01:03;;;;;;;25.90;11.10;;;15.50;99.90;;;;;;6275424;28;20032;-85
2021/10/22 08:04:05;;;;;;;110.03;56.35;;;15.50;99.90;;;;;;6258762;28;20029;-85
2021/10/22 08:07:05;;;;;;;24.08;11.82;;;15.80;99.90;;;;;;6275875;28;20040;-85
2021/10/22 08:10:07;;;;;;;26.23;16.05;;;16.20;98.60;;;;;;6294107;28;20433;-86
2021/10/22 08:13:10;;;;;;;16.05;6.57;;;16.20;98.10;;;;;;6275996;28;20100;-85
2021/10/22 08:16:11;;;;;;;11.38;3.50;;;16.60;97.80;;;;;;6260077;28;20063;-86
2021/10/22 08:19:12;;;;;;;11.63;4.75;;;16.50;96.00;;;;;;6292492;28;20420;-86
2021/10/22 08:22:29;;;;;;;9.75;3.75;;;15.50;95.70;;;;;;6275770;28;20557;-85
2021/10/22 08:25:30;;;;;;;9.32;3.13;;;14.90;96.00;;;;;;6277616;28;20080;-85
2021/10/22 08:28:30;;;;;;;12.02;3.83;;;13.40;99.90;;;;;;6275679;28;20081;-85
2021/10/22 08:31:31;;;;;;;12.00;3.28;;;;;;;;;;6258832;28;20454;-87
2021/10/22 08:34:32;;;;;;;11.32;3.60;;;12.60;99.90;;;;;;6291696;28;20121;-85
2021/10/22 08:37:36;;;;;;;10.45;3.45;;;12.30;99.90;;;;;;6275186;28;20025;-84
2021/10/22 08:40:37;;;;;;;12.57;3.90;;;12.30;99.90;;;;;;6275476;28;20025;-85
2021/10/22 08:43:39;;;;;;;11.02;3.42;;;12.20;99.90;;;;;;6275110;28;20389;-84
2021/10/22 08:46:41;;;;;;;9.63;3.37;;;12.50;99.90;;;;;;6258224;28;20182;-87
2021/10/22 08:49:41;;;;;;;9.32;4.28;;;12.50;99.90;;;;;;6274950;28;20103;-84
2021/10/22 08:52:43;;;;;;;10.77;3.85;;;;;;;;;;6274788;28;20467;-84
2021/10/22 08:55:44;;;;;;;15.40;4.15;;;;;;;;;;6291710;28;20035;-85
2021/10/22 08:58:45;;;;;;;11.73;3.72;;;;;;;;;;6291098;28;20064;-84
2021/10/22 09:02:14;;;;;;;9.80;3.47;;;13.10;99.90;;;;;;6293065;28;20032;-84
2021/10/22 09:05:16;;;;;;;14.25;4.38;;;14.80;99.90;;;;;;6292720;28;20028;-85
2021/10/22 09:08:17;;;;;;;11.95;3.97;;;12.70;99.90;;;;;;6291481;28;20040;-85
2021/10/22 09:11:24;;;;;;;7.30;3.08;;;17.10;99.90;;;;;;6274592;28;20066;-84
2021/10/22 09:14:26;;;;;;;11.55;3.47;;;17.10;95.80;;;;;;6295245;28;20039;-84
2021/10/22 09:17:40;;;;;;;7.78;3.03;;;18.60;98.60;;;;;;6280078;28;20067;-84
2021/10/22 09:20:48;;;;;;;10.40;3.05;;;18.90;89.30;;;;;;6296789;28;20032;-83
2021/10/22 09:23:49;;;;;;;11.07;3.78;;;19.60;88.20;;;;;;6279928;28;20471;-82
2021/10/22 09:26:51;;;;;;;8.95;2.70;;;17.50;99.90;;;;;;6297511;28;20044;-81
2021/10/22 09:29:51;;;;;;;7.57;3.15;;;17.80;98.90;;;;;;6279401;28;20032;-82
2021/10/22 09:32:53;;;;;;;5.85;2.88;;;18.50;99.90;;;;;;6296192;28;20113;-82
2021/10/22 09:35:54;;;;;;;7.40;2.80;;;19.00;93.50;;;;;;6296292;28;20147;-82
2021/10/22 09:39:23;;;;;;;6.73;2.70;;;19.30;90.70;;;;;;6296028;28;20111;-82
2021/10/22 09:42:24;;;;;;;5.75;2.80;;;18.60;90.60;;;;;;6282291;28;20032;-83
2021/10/22 09:45:28;;;;;;;4.90;2.45;;;18.70;98.20;;;;;;6278783;28;20178;-82
2021/10/22 09:48:30;;;;;;;7.20;2.78;;;18.70;90.00;;;;;;6278398;28;20025;-82
2021/10/22 09:51:35;;;;;;;7.13;2.75;;;18.80;88.60;;;;;;6262852;28;20032;-82
2021/10/22 09:54:36;;;;;;;4.32;2.53;;;19.20;97.00;;;;;;6278912;28;20478;-82
2021/10/22 09:57:37;;;;;;;5.97;3.05;;;19.20;88.10;;;;;;6296609;28;20024;-82
2021/10/22 10:00:38;;;;;;;8.93;3.20;;;19.00;88.80;;;;;;6295606;28;20070;-83
2021/10/22 10:03:40;;;;;;;11.68;4.05;;;19.40;79.40;;;;;;6278368;28;20263;-82
2021/10/22 10:06:40;;;;;;;8.97;3.07;;;19.80;76.50;;;;;;6295030;28;20048;-83
2021/10/22 10:09:41;;;;;;;7.95;3.45;;;19.60;74.70;;;;;;6294919;28;20271;-82
2021/10/22 10:12:42;;;;;;;9.27;3.05;;;19.80;74.70;;;;;;6295215;28;20021;-82
2021/10/22 10:15:43;;;;;;;10.07;3.13;;;;;;;;;;6278019;28;20047;-82
2021/10/22 10:18:46;;;;;;;11.00;3.88;;;19.90;72.40;;;;;;6278224;28;20068;-82
2021/10/22 10:21:47;;;;;;;9.85;3.00;;;19.80;71.80;;;;;;6278218;28;20024;-81
2021/10/22 10:24:49;;;;;;;14.50;3.87;;;19.90;73.00;;;;;;6293974;28;20839;-83
2021/10/22 10:27:52;;;;;;;6.75;3.08;;;19.80;72.10;;;;;;6295037;28;20253;-83
2021/10/22 10:30:53;;;;;;;10.05;3.63;;;19.70;70.80;;;;;;6278029;28;20032;-83
2021/10/22 10:33:57;;;;;;;9.13;3.08;;;19.60;71.30;;;;;;6277935;28;20028;-82
2021/10/22 10:37:07;;;;;;;6.38;2.92;;;19.60;69.90;;;;;;6296162;28;20413;-81
2021/10/22 10:40:30;;;;;;;11.10;4.15;;;19.60;69.40;;;;;;6294020;28;20029;-81
2021/10/22 10:43:31;;;;;;;9.88;4.00;;;19.20;71.10;;;;;;6280015;28;20029;-82
2021/10/22 10:46:33;;;;;;;9.30;3.60;;;19.20;72.20;;;;;;6277410;28;20052;-82
2021/10/22 10:49:46;;;;;;;11.27;3.97;;;19.30;71.40;;;;;;6277911;28;20055;-81
2021/10/22 10:52:54;;;;;;;9.32;3.38;;;19.20;71.80;;;;;;6293796;28;20071;-82
2021/10/22 10:55:55;;;;;;;7.75;3.58;;;19.10;70.30;;;;;;6277980;28;20035;-81
2021/10/22 10:58:56;;;;;;;7.97;3.40;;;18.90;69.60;;;;;;6277612;28;20975;-81
2021/10/22 11:01:57;;;;;;;11.15;3.42;;;19.00;68.70;;;;;;6295675;28;20098;-82
2021/10/22 11:04:58;;;;;;;8.20;3.10;;;18.90;69.20;;;;;;6277451;28;20374;-81
2021/10/22 11:08:31;;;;;;;8.32;2.88;;;18.80;67.80;;;;;;6276576;28;20042;-81
2021/10/22 11:11:34;;;;;;;8.88;3.03;;;18.70;67.10;;;;;;6225193;28;20096;-81
2021/10/22 11:14:41;;;;;;;8.93;3.08;;;18.30;91.10;;;;;;6225244;28;20037;-82
2021/10/22 11:17:42;;;;;;;7.55;2.95;;;18.20;67.80;;;;;;6225139;28;20044;-81
2021/10/22 11:20:43;;;;;;;8.50;2.97;;;18.30;84.30;;;;;;6241998;28;20132;-81
2021/10/22 11:23:43;;;;;;;8.70;2.95;;;18.00;93.10;;;;;;6225449;28;20069;-81
2021/10/22 11:26:45;;;;;;;9.20;3.38;;;17.80;85.80;;;;;;6241773;28;20587;-81
2021/10/22 11:29:50;;;;;;;7.47;3.43;;;17.80;72.00;;;;;;6239157;28;20061;-81
2021/10/22 11:32:53;;;;;;;7.07;2.90;;;18.00;80.70;;;;;;6208697;28;20268;-81
2021/10/22 11:35:54;;;;;;;10.73;3.72;;;17.90;93.50;;;;;;6241664;28;20041;-82
2021/10/22 11:38:54;;;;;;;5.55;2.63;;;17.50;86.30;;;;;;6224851;28;20561;-81
2021/10/22 11:42:11;;;;;;;9.30;3.42;;;17.40;92.40;;;;;;6208933;28;20053;-86
2021/10/22 11:45:16;;;;;;;10.82;3.45;;;17.60;67.80;;;;;;6225037;28;20626;-83
2021/10/22 11:48:32;;;;;;;7.25;3.45;;;17.30;67.50;;;;;;6276231;28;20036;-84
2021/10/22 11:51:33;;;;;;;7.80;2.60;;;17.30;80.50;;;;;;6260021;28;20097;-83
2021/10/22 11:54:41;;;;;;;8.52;2.65;;;17.00;65.30;;;;;;6276292;28;20060;-84
2021/10/22 11:57:41;;;;;;;7.88;3.22;;;16.90;65.50;;;;;;6276327;28;20035;-84
2021/10/22 12:00:52;;;;;;;6.45;2.38;;;15.10;66.80;;;;;;6274801;28;20047;-83
2021/10/22 12:03:56;;;;;;;5.75;2.53;;;17.00;80.00;;;;;;6273915;28;20070;-86
2021/10/22 12:07:05;;;;;;;9.05;3.53;;;16.80;90.20;;;;;;6274066;28;20040;-84
2021/10/22 12:10:08;;;;;;;12.30;3.08;;;16.80;73.10;;;;;;6273944;28;20116;-87
2021/10/22 12:13:09;;;;;;;10.18;3.03;;;16.70;72.60;;;;;;6258604;28;20028;-84
2021/10/22 12:16:14;;;;;;;9.07;3.20;;;16.60;76.00;;;;;;6275827;28;20480;-84
2021/10/22 12:19:14;;;;;;;9.10;2.58;;;16.50;91.80;;;;;;6276336;28;20062;-84
2021/10/22 12:22:16;;;;;;;6.60;3.15;;;;;;;;;;6258993;28;20097;-86
2021/10/22 12:25:20;;;;;;;8.38;2.67;;;15.40;75.80;;;;;;6275623;28;20024;-81
2021/10/22 12:28:21;;;;;;;6.90;2.70;;;15.90;92.60;;;;;;6275621;28;20033;-82
2021/10/22 12:31:31;;;;;;;13.05;3.53;;;15.90;76.00;;;;;;6292596;28;20436;-87
2021/10/22 12:34:32;;;;;;;8.52;3.13;;;;;;;;;;6260575;28;20069;-89
2021/10/22 12:37:35;;;;;;;5.35;2.60;;;15.90;75.80;;;;;;6276243;28;20025;-87
2021/10/22 12:40:54;;;;;;;5.03;2.63;;;15.80;92.80;;;;;;6260346;28;20379;-91
2021/10/22 12:44:14;;;;;;;8.13;2.97;;;15.50;90.00;;;;;;6259708;28;20032;-90
2021/10/22 12:47:15;;;;;;;7.03;2.70;;;;;;;;;;6257353;28;20048;-87
2021/10/22 12:50:20;;;;;;;8.45;3.03;;;15.70;76.70;;;;;;6276174;28;20023;-90
2021/10/22 12:53:29;;;;;;;7.70;3.28;;;15.70;77.90;;;;;;6259008;28;20489;-88
2021/10/22 12:56:30;;;;;;;8.50;3.03;;;15.60;92.30;;;;;;6275668;28;20494;-87
2021/10/22 12:59:32;;;;;;;10.80;3.00;;;;;;;;;;6259038;28;20028;-90
2021/10/22 13:02:33;;;;;;;9.02;3.40;;;;;;;;;;6292386;28;20025;-89
2021/10/22 13:05:34;;;;;;;8.57;3.08;;;;;;;;;;6275706;28;20432;-86
2021/10/22 13:08:43;;;;;;;6.03;2.60;;;15.40;90.20;;;;;;6274432;28;20040;-88
2021/10/22 13:21:46;;;;;;;8.48;2.70;;;15.30;92.00;;;;;;6277158;28;20040;-87
2021/10/22 13:24:46;;;;;;;11.45;2.92;;;15.30;92.40;;;;;;6258313;28;20450;-84
2021/10/22 13:27:47;;;;;;;6.72;2.72;;;15.20;91.20;;;;;;6275159;28;20028;-86
2021/10/22 13:31:04;;;;;;;6.30;2.88;;;15.40;92.20;;;;;;6274787;28;20020;-83
2021/10/22 13:34:05;;;;;;;6.35;2.58;;;15.40;92.60;;;;;;6277215;28;20021;-85
2021/10/22 13:37:05;;;;;;;8.90;3.03;;;15.20;91.00;;;;;;6274543;28;20474;-84
2021/10/22 13:40:07;;;;;;;6.82;3.45;;;17.10;75.90;;;;;;6275103;28;20032;-84
2021/10/22 13:43:07;;;;;;;9.47;2.87;;;14.90;72.70;;;;;;6257547;28;20375;-86
2021/10/22 13:46:08;;;;;;;5.18;2.28;;;14.70;90.40;;;;;;6290803;28;20063;-86
2021/10/22 13:49:09;;;;;;;7.95;2.97;;;;;;;;;;6258043;28;20056;-84
2021/10/22 13:52:10;;;;;;;6.95;3.17;;;14.90;70.80;;;;;;6291948;28;20020;-84
2021/10/22 13:55:10;;;;;;;10.05;3.08;;;14.90;75.70;;;;;;6274199;28;20059;-85
2021/10/22 13:58:11;;;;;;;6.88;2.40;;;14.70;74.70;;;;;;6274143;28;20119;-87
2021/10/22 14:01:12;;;;;;;6.25;2.42;;;14.80;74.50;;;;;;6278178;28;20028;-86
2021/10/22 14:04:12;;;;;;;7.20;2.53;;;14.70;90.70;;;;;;6278775;28;20021;-85
2021/10/22 14:07:13;;;;;;;5.95;2.58;;;15.00;91.60;;;;;;6278653;28;20063;-85
2021/10/22 14:10:14;;;;;;;7.00;2.60;;;14.70;76.00;;;;;;6278544;28;20033;-82
2021/10/22 14:23:36;;;;;;;4.28;2.47;;;14.40;70.50;;;;;;6229210;28;20037;-82
2021/10/22 14:29:59;;;;;;;8.85;2.95;;;14.20;73.70;;;;;;6229434;28;20025;-84
2021/10/22 14:32:59;;;;;;;4.50;2.47;;;14.00;74.90;;;;;;6227071;28;20245;-84
2021/10/22 14:36:00;;;;;;;7.03;2.47;;;13.70;90.90;;;;;;6225192;28;20025;-85
2021/10/22 14:39:01;;;;;;;6.82;2.30;;;13.50;92.00;;;;;;6210306;28;20034;-84
2021/10/22 14:42:06;;;;;;;4.60;2.30;;;13.30;93.00;;;;;;6225582;28;20029;-84
2021/10/22 14:45:12;;;;;;;6.55;2.85;;;12.80;94.80;;;;;;6226744;28;20054;-83
2021/10/22 14:48:16;;;;;;;6.90;3.00;;;;;;;;;;6227416;28;21035;-86
2021/10/22 14:51:24;;;;;;;5.15;2.38;;;;;;;;;;6226390;28;20547;-86
2021/10/22 14:54:27;;;;;;;7.05;2.75;;;12.50;95.00;;;;;;6288852;28;20039;-83
2021/10/22 14:57:28;;;;;;;6.30;2.80;;;12.80;95.10;;;;;;6278076;28;20020;-84
2021/10/22 15:00:32;;;;;;;5.82;2.65;;;;;;;;;;6261192;28;20054;-85
2021/10/22 15:03:32;;;;;;;8.15;3.22;;;12.60;95.30;;;;;;6294153;28;20111;-84
2021/10/22 15:06:34;;;;;;;6.13;3.30;;;12.30;83.00;;;;;;6260802;28;20470;-83
2021/10/22 15:09:35;;;;;;;6.75;3.17;;;;;;;;;;6277712;28;20029;-84
2021/10/22 15:12:36;;;;;;;5.10;2.40;;;12.00;84.60;;;;;;6277074;28;20398;-84
2021/10/22 15:15:38;;;;;;;6.85;2.45;;;12.70;83.40;;;;;;6260676;28;20028;-84
2021/10/22 15:18:39;;;;;;;5.63;2.67;;;12.40;95.20;;;;;;6260662;28;20028;-87
2021/10/22 15:21:39;;;;;;;4.70;2.45;;;12.20;95.90;;;;;;6276731;28;20136;-83
2021/10/22 15:24:40;;;;;;;9.57;3.00;;;;;;;;;;6277968;28;20512;-83
2021/10/22 15:27:42;;;;;;;8.35;3.00;;;12.20;96.70;;;;;;6293141;28;20036;-87
2021/10/22 15:30:43;;;;;;;7.70;2.70;;;;;;;;;;6277546;28;20020;-86
2021/10/22 15:33:44;;;;;;;4.63;2.20;;;;;;;;;;6294038;28;20036;-86
2021/10/22 15:36:45;;;;;;;6.22;2.70;;;;;;;;;;6292855;28;20496;-84
2021/10/22 15:39:46;;;;;;;6.35;2.42;;;;;;;;;;6275753;28;20113;-86
2021/10/22 15:42:47;;;;;;;8.13;2.97;;;;;;;;;;6277056;28;20021;-86
2021/10/22 15:45:48;;;;;;;11.05;3.58;;;;;;;;;;6292913;28;20056;-89
2021/10/22 15:48:49;;;;;;;9.27;4.05;;;;;;;;;;6275993;28;20086;-86
2021/10/22 15:51:50;;;;;;;11.18;4.22;;;;;;;;;;6293037;28;20032;-85
2021/10/22 15:54:51;;;;;;;5.28;2.85;;;10.80;99.90;;;;;;6276256;28;20021;-84
2021/10/22 15:57:52;;;;;;;7.25;2.85;;;;;;;;;;6275633;28;20052;-84
2021/10/22 16:00:53;;;;;;;5.93;2.50;;;;;;;;;;6292286;28;20429;-83
2021/10/22 16:03:54;;;;;;;8.75;2.70;;;10.60;98.60;;;;;;6291974;28;20028;-82
2021/10/22 16:13:03;;;;;;;5.30;2.80;;;;;;;;;;6276065;28;20197;-86
2021/10/22 16:16:24;;;;;;;8.82;3.72;;;10.20;97.50;;;;;;6292742;28;20370;-83
2021/10/22 16:19:26;;;;;;;6.93;2.75;;;;;;;;;;6278344;28;20024;-86
2021/10/22 16:22:27;;;;;;;;;;;10.00;94.30;;;;;;6275399;28;20474;-83
2021/10/22 16:25:27;;;;;;;7.35;3.67;;;9.80;99.90;;;;;;6292156;28;19966;-82
2021/10/22 16:28:28;;;;;;;8.25;3.40;;;;;;;;;;6258956;28;20040;-83
2021/10/22 16:31:29;;;;;;;5.68;3.25;;;;;;;;;;6292024;28;20024;-83
2021/10/22 16:37:50;;;;;;;8.18;3.88;;;;;;;;;;6277792;28;20433;-82
2021/10/22 16:40:51;;;;;;;6.70;4.72;;;9.10;99.90;;;;;;6275900;28;20030;-87
2021/10/22 16:43:52;;;;;;;7.30;3.53;;;8.80;99.90;;;;;;6276251;28;20033;-86
2021/10/22 16:46:53;;;;;;;8.98;3.88;;;9.10;99.90;;;;;;6275521;28;20059;-84
2021/10/22 16:49:54;;;;;;;8.05;3.45;;;;;;;;;;6274335;28;21183;-80
2021/10/22 16:52:55;;;;;;;9.10;5.60;;;;;;;;;;6291730;28;20033;-85